Time;durP1;ratioP1;P1;durP2;ratioP2;P2;SDS_P1;SDS_P2;PMS_P1;PMS_P2;Temp;Humidity;BMP_temperature;BMP_pressure;BME280_temperature;BME280_humidity;BME280_pressure;Samples;Min_cycle;Max_cycle;Signal;HPM_P1;HPM_P2
2022/08/04 00:02:26;;;;;;;11.18;4.50;;;18.50;99.90;;;;;;5033014;28;20081;-76
2022/08/04 00:05:02;;;;;;;12.38;5.60;;;18.50;99.90;;;;;;5031965;28;20053;-76
2022/08/04 00:07:40;;;;;;;11.60;4.50;;;18.50;99.90;;;;;;5031895;28;20057;-76
2022/08/04 00:10:07;;;;;;;9.18;4.32;;;18.50;99.90;;;;;;5031843;28;20041;-76
2022/08/04 00:12:37;;;;;;;13.30;5.03;;;18.50;99.90;;;;;;5032289;28;20152;-76
2022/08/04 00:15:05;;;;;;;14.35;4.45;;;18.50;99.90;;;;;;5036636;28;20037;-76
2022/08/04 00:17:42;;;;;;;11.95;4.47;;;18.50;99.90;;;;;;5036354;28;20388;-76
2022/08/04 00:20:08;;;;;;;11.55;4.65;;;18.50;99.90;;;;;;5036494;28;20056;-76
2022/08/04 00:22:38;;;;;;;10.82;4.53;;;18.40;99.90;;;;;;5036597;28;20064;-76
2022/08/04 00:25:04;;;;;;;9.80;4.05;;;18.40;99.90;;;;;;5034984;28;20049;-76
2022/08/04 00:27:31;;;;;;;12.85;4.53;;;18.40;99.90;;;;;;5034995;28;20420;-76
2022/08/04 00:29:57;;;;;;;10.93;4.47;;;18.40;99.90;;;;;;5034792;28;20049;-76
2022/08/04 00:32:25;;;;;;;11.00;4.30;;;18.40;99.90;;;;;;5034977;28;20420;-76
2022/08/04 00:34:53;;;;;;;12.18;4.18;;;18.30;99.90;;;;;;5036268;28;20041;-76
2022/08/04 00:37:23;;;;;;;9.57;4.13;;;18.30;99.90;;;;;;5034924;28;20127;-76
2022/08/04 00:39:50;;;;;;;12.25;4.10;;;18.30;99.90;;;;;;5036129;28;20060;-76
2022/08/04 00:42:22;;;;;;;7.07;3.92;;;18.30;99.90;;;;;;5034982;28;20449;-76
2022/08/04 00:45:11;;;;;;;12.60;3.87;;;18.30;99.90;;;;;;5034706;28;20393;-76
2022/08/04 00:48:14;;;;;;;8.50;3.95;;;18.30;99.90;;;;;;5035914;28;20049;-76
2022/08/04 00:50:45;;;;;;;13.27;4.32;;;18.40;99.90;;;;;;5034492;28;20041;-76
2022/08/04 00:53:39;;;;;;;7.88;3.67;;;18.30;99.90;;;;;;5035963;28;20179;-76
2022/08/04 00:56:18;;;;;;;10.85;3.60;;;18.20;99.90;;;;;;5035804;28;20049;-76
2022/08/04 00:59:14;;;;;;;13.93;3.92;;;18.30;99.90;;;;;;5035792;28;20046;-76
2022/08/04 01:01:59;;;;;;;8.48;4.05;;;18.30;99.90;;;;;;5035886;28;20125;-76
2022/08/04 01:04:42;;;;;;;9.15;3.88;;;18.20;99.90;;;;;;5034711;28;20049;-76
2022/08/04 01:07:36;;;;;;;10.00;4.13;;;18.30;99.90;;;;;;5034244;28;20055;-76
2022/08/04 01:10:20;;;;;;;7.63;4.25;;;18.20;99.90;;;;;;5034445;28;20124;-76
2022/08/04 01:13:16;;;;;;;9.55;4.20;;;18.20;99.90;;;;;;5034275;28;20045;-76
2022/08/04 01:15:53;;;;;;;15.02;4.78;;;18.20;99.90;;;;;;5035431;28;20049;-76
2022/08/04 01:18:42;;;;;;;12.43;4.13;;;18.20;99.90;;;;;;5034218;28;20128;-75
2022/08/04 01:21:30;;;;;;;10.80;4.25;;;18.20;99.90;;;;;;5026072;28;20061;-76
2022/08/04 01:24:32;;;;;;;10.25;4.15;;;18.20;99.90;;;;;;5033476;28;20411;-76
2022/08/04 01:27:17;;;;;;;9.48;4.35;;;18.20;99.90;;;;;;5035234;28;20068;-76
2022/08/04 01:29:54;;;;;;;11.80;4.63;;;18.20;99.90;;;;;;5033693;28;20053;-76
2022/08/04 01:32:22;;;;;;;8.88;4.25;;;18.20;99.90;;;;;;5035224;28;20049;-76
2022/08/04 01:34:55;;;;;;;10.13;4.47;;;18.20;99.90;;;;;;5035027;28;20045;-76
2022/08/04 01:37:23;;;;;;;;;;;18.20;99.90;;;;;;5035513;28;20081;-76
2022/08/04 01:40:03;;;;;;;9.55;3.85;;;18.20;99.90;;;;;;5033761;28;19925;-76
2022/08/04 01:42:32;;;;;;;9.20;3.92;;;18.20;99.90;;;;;;5033522;28;20504;-76
2022/08/04 01:44:59;;;;;;;12.00;4.07;;;18.20;99.90;;;;;;5033659;28;20091;-75
2022/08/04 01:47:28;;;;;;;8.50;4.05;;;18.30;99.90;;;;;;5033601;28;20132;-76
2022/08/04 01:49:58;;;;;;;14.38;5.38;;;18.30;99.90;;;;;;5035390;28;20081;-76
2022/08/04 01:52:27;;;;;;;9.85;4.65;;;18.30;99.90;;;;;;5034796;28;20049;-76
2022/08/04 01:54:54;;;;;;;10.23;3.75;;;18.20;99.90;;;;;;5034562;28;20424;-75
2022/08/04 01:57:23;;;;;;;9.48;4.00;;;18.30;99.90;;;;;;5034703;28;20045;-75
2022/08/04 01:59:51;;;;;;;13.15;4.00;;;18.30;99.90;;;;;;5033526;28;20457;-76
2022/08/04 02:02:21;;;;;;;7.47;3.35;;;18.20;99.90;;;;;;5033596;28;20179;-76
2022/08/04 02:04:46;;;;;;;9.82;3.85;;;18.30;99.90;;;;;;5033460;28;20092;-76
2022/08/04 02:07:46;;;;;;;6.65;3.42;;;18.20;99.90;;;;;;5033174;28;20080;-76
2022/08/04 02:10:29;;;;;;;8.50;3.72;;;18.20;99.90;;;;;;5034437;28;20053;-75
2022/08/04 02:13:25;;;;;;;8.75;4.13;;;18.20;99.90;;;;;;5033450;28;20056;-76
2022/08/04 02:16:00;;;;;;;8.48;3.55;;;18.20;99.90;;;;;;5034602;28;20096;-76
2022/08/04 02:19:00;;;;;;;10.35;3.92;;;18.10;99.90;;;;;;5034417;28;20037;-75
2022/08/04 02:21:28;;;;;;;7.28;3.58;;;18.20;99.90;;;;;;5033037;28;20091;-76
2022/08/04 02:24:07;;;;;;;11.82;4.47;;;18.20;99.90;;;;;;5032816;28;20045;-76
2022/08/04 02:26:35;;;;;;;11.13;4.57;;;18.20;99.90;;;;;;5032792;28;20077;-76
2022/08/04 02:29:20;;;;;;;10.57;4.03;;;18.30;99.90;;;;;;5033805;28;20118;-76
2022/08/04 02:31:56;;;;;;;9.63;4.57;;;18.40;99.90;;;;;;5033181;28;20075;-76
2022/08/04 02:34:28;;;;;;;12.13;4.47;;;18.50;99.90;;;;;;5032680;28;20546;-75
2022/08/04 02:36:54;;;;;;;14.57;4.70;;;18.60;99.90;;;;;;5034090;28;20077;-76
2022/08/04 02:39:21;;;;;;;13.73;4.20;;;18.70;99.90;;;;;;5033985;28;20037;-76
2022/08/04 02:41:53;;;;;;;9.98;4.30;;;18.80;99.90;;;;;;5033770;28;20124;-76
2022/08/04 02:44:25;;;;;;;10.30;4.53;;;18.80;99.90;;;;;;5033997;28;20049;-76
2022/08/04 02:46:52;;;;;;;10.25;4.20;;;18.80;99.90;;;;;;5032392;28;20132;-75
2022/08/04 02:49:19;;;;;;;10.52;4.45;;;18.80;99.90;;;;;;5032511;28;20092;-76
2022/08/04 02:51:50;;;;;;;12.05;4.60;;;18.80;99.90;;;;;;5032625;28;20076;-75
2022/08/04 02:54:18;;;;;;;9.63;4.50;;;18.80;99.90;;;;;;5032566;28;20099;-75
2022/08/04 02:56:45;;;;;;;8.80;4.47;;;18.80;99.90;;;;;;5032472;28;20132;-75
2022/08/04 02:59:12;;;;;;;14.02;5.05;;;18.80;99.90;;;;;;5032508;28;20049;-75
2022/08/04 03:01:40;;;;;;;9.85;5.40;;;18.80;99.90;;;;;;5033752;28;20052;-76
2022/08/04 03:04:40;;;;;;;10.00;5.38;;;18.80;99.90;;;;;;5032234;28;20091;-76
2022/08/04 03:07:34;;;;;;;10.90;5.05;;;18.70;99.90;;;;;;5033613;28;20044;-76
2022/08/04 03:10:21;;;;;;;12.98;5.53;;;18.70;99.90;;;;;;5032486;28;20134;-75
2022/08/04 03:13:24;;;;;;;13.00;5.10;;;18.80;99.90;;;;;;5033655;28;20037;-75
2022/08/04 03:16:22;;;;;;;9.45;4.93;;;18.70;99.90;;;;;;5032135;28;20049;-76
2022/08/04 03:19:06;;;;;;;10.95;5.75;;;18.70;99.90;;;;;;5032513;28;20097;-75
2022/08/04 03:22:09;;;;;;;12.40;5.85;;;18.70;99.90;;;;;;5033548;28;20124;-75
2022/08/04 03:24:54;;;;;;;11.43;5.65;;;18.70;99.90;;;;;;5033464;28;20046;-75
2022/08/04 03:27:52;;;;;;;11.98;5.00;;;18.60;99.90;;;;;;5033427;28;20132;-75
2022/08/04 03:30:24;;;;;;;11.27;5.32;;;18.60;99.90;;;;;;5033424;28;20156;-75
2022/08/04 03:32:58;;;;;;;12.68;4.90;;;18.60;99.90;;;;;;5032345;28;20041;-75
2022/08/04 03:35:42;;;;;;;8.77;4.30;;;18.60;99.90;;;;;;5033269;28;20095;-75
2022/08/04 03:38:37;;;;;;;9.88;5.00;;;18.60;99.90;;;;;;5032380;28;20045;-75
2022/08/04 03:41:25;;;;;;;7.78;4.57;;;18.60;99.90;;;;;;5031856;28;20392;-75
2022/08/04 03:44:19;;;;;;;14.70;5.30;;;18.50;99.90;;;;;;5031054;28;20519;-76
2022/08/04 03:47:30;;;;;;;9.93;4.57;;;18.50;99.90;;;;;;5014372;28;20053;-75
2022/08/04 03:50:11;;;;;;;12.60;4.57;;;18.50;99.90;;;;;;5019964;28;20116;-75
2022/08/04 03:53:08;;;;;;;9.48;4.70;;;18.40;99.90;;;;;;5035574;28;20057;-75
2022/08/04 03:56:13;;;;;;;12.20;4.80;;;18.40;99.90;;;;;;5035510;28;20057;-75
2022/08/04 03:58:48;;;;;;;9.73;4.28;;;18.40;99.90;;;;;;5036832;28;20085;-75
2022/08/04 04:01:30;;;;;;;9.65;3.83;;;18.40;99.90;;;;;;5036599;28;20405;-75
2022/08/04 04:04:26;;;;;;;12.07;4.82;;;18.40;99.90;;;;;;5035658;28;20060;-75
2022/08/04 04:07:03;;;;;;;12.25;4.72;;;18.30;99.90;;;;;;5035459;28;20049;-75
2022/08/04 04:09:54;;;;;;;11.57;4.57;;;18.30;99.90;;;;;;5036729;28;20056;-75
2022/08/04 04:13:01;;;;;;;8.43;4.47;;;18.30;99.90;;;;;;5036634;28;20117;-75
2022/08/04 04:16:24;;;;;;;14.48;4.20;;;18.20;99.90;;;;;;5035108;28;20054;-75
2022/08/04 04:18:55;;;;;;;9.38;4.18;;;18.30;99.90;;;;;;4994797;28;20383;-75
2022/08/04 04:21:33;;;;;;;14.10;4.72;;;18.20;99.90;;;;;;4978849;28;20050;-75
2022/08/04 04:24:19;;;;;;;10.35;3.85;;;18.20;99.90;;;;;;5009790;28;20068;-75
2022/08/04 04:27:09;;;;;;;7.75;4.05;;;18.20;99.90;;;;;;5034830;28;20038;-75
2022/08/04 04:30:11;;;;;;;11.60;4.05;;;18.20;99.90;;;;;;5034755;28;20111;-75
2022/08/04 04:32:55;;;;;;;11.13;4.25;;;18.10;99.90;;;;;;5035997;28;20528;-75
2022/08/04 04:35:28;;;;;;;7.28;3.90;;;18.10;99.90;;;;;;5036124;28;20125;-75
2022/08/04 04:38:02;;;;;;;;;;;18.20;99.90;;;;;;5036452;28;20088;-75
2022/08/04 04:40:39;;;;;;;10.68;4.75;;;18.10;99.90;;;;;;5034641;28;19939;-75
2022/08/04 04:43:08;;;;;;;7.60;3.60;;;18.20;99.90;;;;;;5036030;28;20042;-75
2022/08/04 04:45:51;;;;;;;9.35;3.90;;;18.20;99.90;;;;;;5034879;28;20425;-75
2022/08/04 04:48:28;;;;;;;10.35;4.68;;;18.20;99.90;;;;;;5035990;28;20104;-75
2022/08/04 04:51:09;;;;;;;8.45;3.90;;;18.20;99.90;;;;;;5034747;28;20130;-75
2022/08/04 04:53:51;;;;;;;8.50;4.07;;;18.20;99.90;;;;;;5034608;28;20128;-75
2022/08/04 04:56:53;;;;;;;9.75;3.78;;;18.20;99.90;;;;;;5034414;28;20049;-75
2022/08/04 04:59:21;;;;;;;8.90;3.93;;;18.20;99.90;;;;;;5033441;28;20520;-75
2022/08/04 05:02:14;;;;;;;9.75;3.83;;;18.30;99.90;;;;;;5035640;28;20049;-75
2022/08/04 05:05:03;;;;;;;;;;;18.30;99.90;;;;;;5036126;28;20037;-75
2022/08/04 05:08:17;;;;;;;8.30;4.15;;;18.30;99.90;;;;;;5035146;28;19928;-75
2022/08/04 05:10:46;;;;;;;9.25;3.70;;;18.40;99.90;;;;;;5035293;28;20391;-75
2022/08/04 05:13:18;;;;;;;8.25;3.90;;;18.40;99.90;;;;;;5035489;28;20049;-75
2022/08/04 05:15:47;;;;;;;9.50;4.38;;;18.40;99.90;;;;;;5035370;28;20103;-75
2022/08/04 05:18:21;;;;;;;9.40;4.07;;;18.50;99.90;;;;;;5035492;28;20183;-75
2022/08/04 05:20:54;;;;;;;11.10;4.50;;;18.60;99.90;;;;;;5033678;28;20133;-75
2022/08/04 05:23:27;;;;;;;11.05;4.63;;;18.60;99.90;;;;;;5035679;28;20052;-75
2022/08/04 05:25:59;;;;;;;7.47;4.65;;;18.70;99.90;;;;;;5035395;28;20123;-75
2022/08/04 05:28:55;;;;;;;11.43;4.95;;;18.70;99.90;;;;;;5034999;28;20065;-75
2022/08/04 05:31:25;;;;;;;11.77;4.97;;;18.80;99.90;;;;;;5035253;28;20049;-75
2022/08/04 05:33:54;;;;;;;6.97;4.07;;;18.80;99.90;;;;;;5035184;28;20049;-75
2022/08/04 05:36:22;;;;;;;8.10;5.00;;;18.90;99.90;;;;;;5033960;28;20056;-75
2022/08/04 05:38:53;;;;;;;6.93;3.90;;;19.00;99.90;;;;;;5035078;28;20048;-75
2022/08/04 05:41:21;;;;;;;10.05;3.63;;;19.00;99.90;;;;;;5033500;28;20060;-75
2022/08/04 05:43:48;;;;;;;10.20;4.30;;;19.10;99.90;;;;;;5034923;28;20042;-75
2022/08/04 05:46:16;;;;;;;8.05;3.67;;;19.10;99.90;;;;;;5034858;28;20065;-75
2022/08/04 05:48:43;;;;;;;7.95;3.50;;;19.10;99.90;;;;;;5034672;28;20053;-75
2022/08/04 05:51:10;;;;;;;6.57;3.60;;;19.20;99.90;;;;;;5034876;28;20053;-75
2022/08/04 05:53:37;;;;;;;12.18;4.10;;;19.30;99.90;;;;;;5033285;28;20049;-75
2022/08/04 05:56:05;;;;;;;10.93;4.18;;;19.30;99.90;;;;;;5034504;28;20056;-75
2022/08/04 05:58:31;;;;;;;10.38;3.95;;;19.40;99.90;;;;;;5034628;28;20045;-75
2022/08/04 06:01:01;;;;;;;7.22;3.70;;;19.40;99.90;;;;;;5034505;28;20086;-75
2022/08/04 06:03:29;;;;;;;9.05;3.80;;;19.50;99.90;;;;;;5033120;28;20090;-75
2022/08/04 06:05:56;;;;;;;11.90;4.20;;;19.50;99.90;;;;;;5034576;28;20044;-75
2022/08/04 06:08:23;;;;;;;9.07;4.20;;;19.70;99.90;;;;;;5032968;28;20042;-75
2022/08/04 06:10:50;;;;;;;8.05;5.13;;;19.70;99.90;;;;;;5033781;28;20053;-75
2022/08/04 06:13:19;;;;;;;10.30;5.00;;;19.80;99.90;;;;;;5034126;28;20481;-75
2022/08/04 06:15:47;;;;;;;11.38;5.30;;;20.00;99.90;;;;;;5034327;28;20088;-75
2022/08/04 06:18:13;;;;;;;11.00;5.07;;;20.10;99.90;;;;;;5033074;28;20459;-75
2022/08/04 06:20:41;;;;;;;7.80;4.75;;;20.20;99.90;;;;;;5032775;28;20554;-75
2022/08/04 06:23:10;;;;;;;12.57;5.47;;;20.30;99.90;;;;;;5034159;28;20046;-75
2022/08/04 06:25:44;;;;;;;8.07;5.30;;;20.40;99.90;;;;;;5033951;28;20050;-75
2022/08/04 06:28:11;;;;;;;10.32;4.65;;;20.50;99.90;;;;;;5033874;28;20061;-75
2022/08/04 06:30:39;;;;;;;10.98;4.80;;;20.70;99.90;;;;;;5033816;28;20437;-75
2022/08/04 06:33:23;;;;;;;9.43;5.00;;;20.70;99.90;;;;;;5033951;28;20045;-75
2022/08/04 06:35:52;;;;;;;10.23;5.30;;;20.70;99.90;;;;;;5032548;28;20056;-75
2022/08/04 06:38:20;;;;;;;10.43;5.28;;;20.90;99.90;;;;;;5033901;28;20045;-75
2022/08/04 06:40:46;;;;;;;11.80;6.03;;;20.90;99.90;;;;;;5032457;28;20049;-75
2022/08/04 06:43:12;;;;;;;11.02;5.45;;;21.00;99.90;;;;;;5032572;28;20121;-75
2022/08/04 06:45:40;;;;;;;10.15;5.65;;;21.20;99.90;;;;;;5032615;28;20091;-75
2022/08/04 06:48:06;;;;;;;14.45;5.57;;;21.40;99.90;;;;;;5033495;28;20042;-75
2022/08/04 06:50:36;;;;;;;13.40;7.35;;;21.40;99.90;;;;;;5032383;28;20045;-76
2022/08/04 06:53:03;;;;;;;12.60;6.18;;;21.50;99.90;;;;;;5033804;28;20120;-76
2022/08/04 06:55:30;;;;;;;16.38;6.43;;;21.70;99.90;;;;;;5033692;28;20055;-77
2022/08/04 06:57:57;;;;;;;11.80;5.90;;;21.80;99.90;;;;;;5033470;28;20370;-77
2022/08/04 07:00:24;;;;;;;15.05;6.82;;;21.80;99.90;;;;;;5033763;28;20041;-77
2022/08/04 07:02:51;;;;;;;14.98;6.70;;;21.90;99.90;;;;;;5032134;28;20053;-77
2022/08/04 07:05:18;;;;;;;13.15;6.60;;;22.00;99.90;;;;;;5032212;28;20108;-77
2022/08/04 07:07:45;;;;;;;9.00;5.90;;;21.90;99.90;;;;;;5033137;28;20045;-76
2022/08/04 07:10:11;;;;;;;16.00;6.22;;;22.00;99.90;;;;;;5042761;28;20050;-76
2022/08/04 07:12:38;;;;;;;10.98;5.88;;;22.10;99.90;;;;;;5032295;28;20115;-75
2022/08/04 07:15:05;;;;;;;10.13;5.82;;;22.00;99.90;;;;;;5031879;28;20095;-76
2022/08/04 07:17:35;;;;;;;12.43;5.75;;;22.00;99.90;;;;;;5032118;28;20057;-76
2022/08/04 07:20:01;;;;;;;10.80;5.72;;;22.10;99.90;;;;;;5031757;28;20481;-75
2022/08/04 07:22:28;;;;;;;12.82;6.00;;;22.00;99.90;;;;;;5032662;28;20068;-76
2022/08/04 07:24:57;;;;;;;13.38;6.57;;;22.20;99.90;;;;;;5037000;28;20370;-76
2022/08/04 07:27:25;;;;;;;10.82;5.90;;;22.40;99.90;;;;;;5036016;28;20049;-76
2022/08/04 07:29:50;;;;;;;11.85;5.85;;;22.60;99.90;;;;;;5036880;28;20053;-76
2022/08/04 07:32:19;;;;;;;11.07;5.40;;;22.80;99.90;;;;;;5037288;28;20046;-75
2022/08/04 07:34:47;;;;;;;13.00;5.32;;;23.00;99.90;;;;;;5035938;28;20436;-75
2022/08/04 07:37:13;;;;;;;12.45;6.15;;;23.30;99.90;;;;;;5035983;28;20435;-76
2022/08/04 07:39:39;;;;;;;11.32;6.65;;;23.40;99.90;;;;;;5035549;28;20052;-76
2022/08/04 07:42:06;;;;;;;11.10;6.03;;;23.40;99.90;;;;;;5035609;28;20377;-76
2022/08/04 07:44:33;;;;;;;13.32;5.90;;;23.40;99.90;;;;;;5035483;28;20041;-75
2022/08/04 07:47:00;;;;;;;11.90;5.72;;;23.50;99.90;;;;;;5036657;28;20057;-76
2022/08/04 07:49:26;;;;;;;9.13;5.63;;;23.70;99.90;;;;;;5035461;28;20543;-75
2022/08/04 07:51:53;;;;;;;14.80;6.00;;;23.80;99.90;;;;;;5039339;28;20041;-75
2022/08/04 07:54:20;;;;;;;9.32;5.10;;;24.00;99.90;;;;;;5056794;28;20037;-75
2022/08/04 07:56:48;;;;;;;9.95;6.03;;;24.10;99.90;;;;;;5048273;28;20112;-75
2022/08/04 07:59:15;;;;;;;10.15;5.63;;;24.20;99.90;;;;;;5036276;28;20037;-75
2022/08/04 08:01:41;;;;;;;12.27;5.57;;;24.20;99.90;;;;;;5035572;28;20042;-76
2022/08/04 08:04:09;;;;;;;9.80;4.88;;;24.30;99.90;;;;;;5035777;28;20044;-76
2022/08/04 08:06:36;;;;;;;10.68;4.97;;;24.40;99.90;;;;;;5054929;28;20073;-76
2022/08/04 08:09:16;;;;;;;6.75;4.57;;;24.40;99.90;;;;;;5056510;28;20047;-76
2022/08/04 08:11:44;;;;;;;10.38;4.35;;;24.60;99.90;;;;;;5054169;28;20124;-76
2022/08/04 08:14:11;;;;;;;7.85;4.60;;;24.60;99.90;;;;;;5045934;28;20048;-76
2022/08/04 08:16:37;;;;;;;11.00;4.78;;;24.80;99.90;;;;;;5036333;28;20048;-76
2022/08/04 08:19:04;;;;;;;16.75;4.72;;;24.90;99.90;;;;;;5035274;28;20053;-76
2022/08/04 08:21:30;;;;;;;11.48;4.95;;;25.00;99.90;;;;;;5039088;28;20041;-77
2022/08/04 08:23:56;;;;;;;8.05;4.70;;;25.10;99.90;;;;;;5042581;28;20037;-78
2022/08/04 08:26:22;;;;;;;6.63;4.05;;;25.10;99.90;;;;;;5036120;28;20075;-77
2022/08/04 08:28:48;;;;;;;9.40;4.35;;;25.30;99.90;;;;;;5035906;28;20061;-76
2022/08/04 08:31:14;;;;;;;6.63;3.63;;;25.40;99.90;;;;;;5034875;28;20048;-76
2022/08/04 08:33:40;;;;;;;11.45;4.22;;;25.60;99.90;;;;;;5035758;28;20045;-76
2022/08/04 08:36:21;;;;;;;9.23;3.88;;;25.70;99.90;;;;;;5053579;28;20045;-77
2022/08/04 08:39:02;;;;;;;11.57;3.17;;;25.80;99.90;;;;;;5055996;28;20041;-77
2022/08/04 08:41:46;;;;;;;10.45;3.30;;;25.90;99.90;;;;;;5056044;28;20045;-77
2022/08/04 08:44:29;;;;;;;12.45;3.08;;;26.10;99.90;;;;;;5053914;28;20483;-77
2022/08/04 08:47:13;;;;;;;8.77;3.08;;;26.20;99.90;;;;;;5051944;28;20041;-77
2022/08/04 08:49:51;;;;;;;8.80;2.40;;;26.20;99.90;;;;;;5054299;28;20052;-77
2022/08/04 08:52:41;;;;;;;7.65;2.50;;;26.50;99.90;;;;;;5055583;28;20045;-76
2022/08/04 08:55:25;;;;;;;8.80;3.10;;;26.50;99.90;;;;;;5054467;28;20404;-77
2022/08/04 08:58:05;;;;;;;7.47;3.08;;;26.50;99.90;;;;;;5054188;28;20125;-77
2022/08/04 09:00:50;;;;;;;6.10;2.50;;;26.60;99.90;;;;;;5054057;28;20052;-77
2022/08/04 09:03:30;;;;;;;9.05;2.40;;;26.70;99.90;;;;;;5055269;28;20049;-76
2022/08/04 09:06:09;;;;;;;7.25;1.90;;;26.80;99.90;;;;;;5050259;28;20037;-77
2022/08/04 09:09:19;;;;;;;4.88;1.80;;;26.90;99.90;;;;;;5048799;28;20051;-77
2022/08/04 09:12:21;;;;;;;6.32;2.13;;;27.00;99.90;;;;;;4958088;28;20043;-77
2022/08/04 09:14:57;;;;;;;7.05;2.25;;;26.90;99.90;;;;;;4949726;28;20163;-77
2022/08/04 09:17:40;;;;;;;9.52;2.47;;;26.90;99.90;;;;;;5030553;28;20052;-76
2022/08/04 09:20:20;;;;;;;5.45;2.05;;;26.80;99.90;;;;;;5053677;28;20090;-77
2022/08/04 09:22:58;;;;;;;11.00;2.20;;;26.80;99.90;;;;;;5055179;28;20048;-76
2022/08/04 09:25:37;;;;;;;7.20;1.70;;;26.70;99.90;;;;;;5053639;28;20438;-76
2022/08/04 09:28:21;;;;;;;3.72;1.27;;;26.60;99.90;;;;;;5053329;28;20080;-76
2022/08/04 09:31:05;;;;;;;2.97;1.20;;;26.70;99.90;;;;;;5053372;28;20127;-76
2022/08/04 09:33:49;;;;;;;3.72;1.15;;;26.70;99.90;;;;;;5052357;28;20467;-76
2022/08/04 09:36:41;;;;;;;3.92;1.15;;;26.60;99.90;;;;;;5051278;28;20056;-76
2022/08/04 09:39:32;;;;;;;3.22;0.88;;;26.70;99.90;;;;;;5054789;28;20049;-76
2022/08/04 09:42:22;;;;;;;3.45;1.13;;;26.90;99.90;;;;;;5053048;28;20506;-76
2022/08/04 09:45:11;;;;;;;6.65;2.05;;;27.10;99.90;;;;;;5050927;28;20151;-76
2022/08/04 09:47:52;;;;;;;5.43;1.60;;;27.20;99.90;;;;;;5053384;28;20048;-76
2022/08/04 09:50:34;;;;;;;5.70;1.55;;;27.40;99.90;;;;;;5053369;28;20084;-77
2022/08/04 09:52:59;;;;;;;;;;;27.60;99.90;;;;;;5053573;28;20061;-75
2022/08/04 09:55:56;;;;;;;6.05;2.30;;;27.60;99.90;;;;;;5054219;28;20031;-75
2022/08/04 09:58:30;;;;;;;7.60;1.50;;;27.90;99.90;;;;;;5054538;28;20052;-75
2022/08/04 10:01:01;;;;;;;3.92;1.50;;;27.80;99.90;;;;;;5052801;28;20389;-76
2022/08/04 10:03:32;;;;;;;2.60;1.27;;;27.80;99.90;;;;;;5054247;28;20178;-75
2022/08/04 10:06:18;;;;;;;2.38;1.25;;;27.80;99.90;;;;;;5052757;28;20094;-76
2022/08/04 10:09:16;;;;;;;2.08;1.13;;;27.90;99.90;;;;;;5053817;28;20488;-75
2022/08/04 10:12:16;;;;;;;4.13;1.13;;;27.90;99.90;;;;;;5052706;28;20404;-75
2022/08/04 10:14:52;;;;;;;2.08;0.90;;;28.00;99.90;;;;;;5050001;28;20053;-75
2022/08/04 10:17:38;;;;;;;2.25;1.20;;;28.00;99.90;;;;;;5052927;28;20044;-75
2022/08/04 10:20:13;;;;;;;5.75;1.52;;;28.00;99.90;;;;;;5052557;28;20037;-74
2022/08/04 10:22:45;;;;;;;6.00;1.88;;;27.70;99.90;;;;;;5053882;28;20115;-74
2022/08/04 10:25:36;;;;;;;5.68;1.95;;;27.70;99.90;;;;;;5052476;28;20052;-74
2022/08/04 10:28:08;;;;;;;6.43;1.70;;;27.50;99.90;;;;;;5052256;28;20087;-75
2022/08/04 10:30:37;;;;;;;4.38;1.80;;;27.40;99.90;;;;;;5052632;28;20057;-76
2022/08/04 10:33:09;;;;;;;4.68;1.60;;;27.30;99.90;;;;;;5052896;28;20048;-76
2022/08/04 10:35:45;;;;;;;3.45;1.15;;;27.20;99.90;;;;;;5053537;28;20041;-76
2022/08/04 10:38:36;;;;;;;4.72;1.48;;;27.20;99.90;;;;;;5053819;28;20055;-75
2022/08/04 10:41:10;;;;;;;5.00;1.30;;;27.30;99.90;;;;;;5053708;28;20041;-75
2022/08/04 10:44:02;;;;;;;3.17;1.42;;;27.40;99.90;;;;;;5053697;28;20064;-75
2022/08/04 10:46:36;;;;;;;5.40;1.58;;;27.40;99.90;;;;;;5053631;28;20041;-75
2022/08/04 10:49:07;;;;;;;5.32;1.50;;;27.50;99.90;;;;;;5053419;28;20393;-75
2022/08/04 10:51:50;;;;;;;4.32;1.42;;;27.40;99.90;;;;;;5052103;28;20045;-74
2022/08/04 10:54:25;;;;;;;;;;;27.30;99.90;;;;;;5054034;28;20051;-75
2022/08/04 10:56:58;;;;;;;7.40;1.95;;;27.20;99.90;;;;;;5051657;28;19925;-75
2022/08/04 10:59:46;;;;;;;3.67;1.55;;;27.00;99.90;;;;;;5053219;28;20064;-75
2022/08/04 11:02:25;;;;;;;4.50;2.05;;;27.00;99.90;;;;;;5053402;28;20040;-76
2022/08/04 11:05:03;;;;;;;5.45;1.85;;;26.50;99.90;;;;;;5053479;28;20045;-76
2022/08/04 11:07:34;;;;;;;6.13;2.30;;;26.50;99.90;;;;;;5053363;28;20103;-76
2022/08/04 11:10:00;;;;;;;6.75;2.22;;;26.40;99.90;;;;;;5053203;28;20072;-76
2022/08/04 11:12:27;;;;;;;8.75;1.88;;;26.40;99.90;;;;;;5053046;28;20041;-76
2022/08/04 11:15:06;;;;;;;7.13;1.73;;;26.50;99.90;;;;;;5051716;28;20044;-76
2022/08/04 11:17:37;;;;;;;5.25;1.60;;;26.50;99.90;;;;;;5053371;28;20053;-75
2022/08/04 11:20:23;;;;;;;5.25;1.70;;;26.60;99.90;;;;;;5052996;28;20396;-76
2022/08/04 11:23:11;;;;;;;4.32;1.50;;;26.50;99.90;;;;;;5053259;28;20045;-77
2022/08/04 11:25:46;;;;;;;7.57;2.10;;;26.70;99.90;;;;;;5053296;28;20064;-76
2022/08/04 11:28:38;;;;;;;9.60;1.95;;;27.00;99.90;;;;;;5051310;28;20057;-76
2022/08/04 11:31:50;;;;;;;10.10;2.28;;;26.90;99.90;;;;;;5052532;28;20041;-77
2022/08/04 11:34:21;;;;;;;6.47;2.20;;;26.90;99.90;;;;;;5006980;28;20061;-76
2022/08/04 11:37:08;;;;;;;10.13;2.10;;;26.80;99.90;;;;;;5032002;28;20096;-76
2022/08/04 11:39:36;;;;;;;7.78;1.90;;;26.70;99.90;;;;;;5033140;28;20041;-76
2022/08/04 11:42:22;;;;;;;9.32;2.40;;;26.70;99.90;;;;;;5032811;28;20103;-76
2022/08/04 11:44:48;;;;;;;7.22;2.00;;;26.70;99.90;;;;;;5032879;28;20095;-76
2022/08/04 11:47:23;;;;;;;7.53;3.20;;;26.60;99.90;;;;;;5046912;28;20507;-76
2022/08/04 11:50:00;;;;;;;10.30;2.45;;;26.50;99.90;;;;;;5051462;28;20510;-76
2022/08/04 11:52:26;;;;;;;10.27;2.78;;;26.40;99.90;;;;;;5051702;28;20095;-76
2022/08/04 11:54:53;;;;;;;8.48;2.83;;;26.30;99.90;;;;;;5043807;28;20454;-75
2022/08/04 11:57:21;;;;;;;9.77;3.30;;;26.30;99.90;;;;;;5032960;28;20045;-75
2022/08/04 11:59:48;;;;;;;9.35;3.00;;;26.40;99.90;;;;;;5032768;28;20042;-76
2022/08/04 12:02:25;;;;;;;12.38;2.90;;;26.50;99.90;;;;;;5047853;28;20087;-78
2022/08/04 12:04:59;;;;;;;10.40;3.03;;;26.40;99.90;;;;;;5031369;28;20045;-77
2022/08/04 12:07:39;;;;;;;9.15;2.67;;;26.40;99.90;;;;;;5032645;28;20045;-77
2022/08/04 12:10:29;;;;;;;8.68;2.70;;;26.30;99.90;;;;;;5034326;28;20452;-77
2022/08/04 12:13:02;;;;;;;8.95;3.00;;;26.40;99.90;;;;;;5035831;28;20501;-78
2022/08/04 12:15:39;;;;;;;14.00;3.70;;;26.30;99.90;;;;;;5035433;28;20045;-77
2022/08/04 12:18:19;;;;;;;11.82;2.70;;;26.40;99.90;;;;;;5036659;28;20049;-77
2022/08/04 12:20:58;;;;;;;11.68;3.20;;;26.20;99.90;;;;;;5036315;28;20037;-78
2022/08/04 12:23:29;;;;;;;8.90;2.97;;;26.10;99.90;;;;;;5035191;28;20124;-78
2022/08/04 12:26:01;;;;;;;16.40;3.75;;;26.00;99.90;;;;;;5035115;28;20097;-78
2022/08/04 12:28:53;;;;;;;8.85;2.60;;;26.10;99.90;;;;;;5034796;28;20061;-78
2022/08/04 12:31:33;;;;;;;11.55;3.35;;;26.20;99.90;;;;;;5031205;28;20069;-78
2022/08/04 12:34:07;;;;;;;9.90;3.60;;;26.10;99.90;;;;;;5035225;28;20059;-78
2022/08/04 12:36:44;;;;;;;12.18;3.70;;;26.20;99.90;;;;;;5034126;28;20423;-78
2022/08/04 12:39:15;;;;;;;11.40;2.83;;;26.50;99.90;;;;;;5036291;28;20076;-78
2022/08/04 12:42:06;;;;;;;9.85;2.83;;;26.40;99.90;;;;;;5036037;28;20045;-78
2022/08/04 12:44:37;;;;;;;12.77;2.90;;;26.50;99.90;;;;;;5007497;28;20056;-78
2022/08/04 12:47:07;;;;;;;12.15;3.28;;;26.30;99.90;;;;;;5034873;28;20168;-78
2022/08/04 12:49:36;;;;;;;13.05;3.80;;;26.50;99.90;;;;;;5034715;28;20488;-78
2022/08/04 12:52:06;;;;;;;13.77;3.80;;;26.50;99.90;;;;;;5034495;28;20045;-78
2022/08/04 12:54:34;;;;;;;11.73;3.95;;;26.50;99.90;;;;;;5035977;28;20037;-78
2022/08/04 12:57:02;;;;;;;12.20;3.70;;;26.50;99.90;;;;;;5035861;28;20037;-78
2022/08/04 12:59:27;;;;;;;13.68;3.70;;;26.40;99.90;;;;;;5034652;28;20057;-78
2022/08/04 13:01:54;;;;;;;10.77;3.90;;;26.30;99.90;;;;;;5035729;28;20048;-78
2022/08/04 13:04:25;;;;;;;13.70;4.85;;;26.00;99.90;;;;;;5035463;28;20547;-79
2022/08/04 13:06:58;;;;;;;15.63;4.43;;;26.00;99.90;;;;;;5034570;28;20038;-79
2022/08/04 13:09:31;;;;;;;10.98;4.60;;;25.90;99.90;;;;;;5034100;28;20057;-78
2022/08/04 13:12:01;;;;;;;12.85;4.18;;;25.80;99.90;;;;;;5034489;28;20038;-78
2022/08/04 13:14:34;;;;;;;11.68;4.70;;;25.70;99.90;;;;;;5035853;28;20508;-78
2022/08/04 13:17:01;;;;;;;9.93;4.78;;;25.60;99.90;;;;;;5034127;28;20041;-78
2022/08/04 13:19:28;;;;;;;10.35;4.80;;;25.30;99.90;;;;;;5035375;28;20057;-78
2022/08/04 13:21:56;;;;;;;9.32;4.72;;;25.20;99.90;;;;;;5034463;28;20045;-78
2022/08/04 13:24:22;;;;;;;9.52;4.70;;;25.20;99.90;;;;;;5034145;28;20064;-78
2022/08/04 13:26:57;;;;;;;7.68;4.28;;;25.00;99.90;;;;;;5035114;28;20135;-78
2022/08/04 13:29:39;;;;;;;8.23;4.25;;;25.00;99.90;;;;;;5033706;28;20072;-78
2022/08/04 13:32:06;;;;;;;8.38;4.30;;;25.00;99.90;;;;;;5035106;28;20049;-78